Time;durP1;ratioP1;P1;durP2;ratioP2;P2;SDS_P1;SDS_P2;PMS_P1;PMS_P2;Temp;Humidity;BMP_temperature;BMP_pressure;BME280_temperature;BME280_humidity;BME280_pressure;Samples;Min_cycle;Max_cycle;Signal;HPM_P1;HPM_P2
2022/04/07 00:00:44;;;;;;;1.00;1.00;;;19.70;42.00;;;;;;6247053;23;20285;-71
2022/04/07 00:03:11;;;;;;;1.08;1.08;;;19.70;42.00;;;;;;6248071;22;20183;-71
2022/04/07 00:05:38;;;;;;;1.17;1.17;;;19.70;41.90;;;;;;6248303;23;20185;-71
2022/04/07 00:08:06;;;;;;;1.00;1.00;;;19.70;41.90;;;;;;6247333;23;20178;-71
2022/04/07 00:10:33;;;;;;;1.17;1.17;;;19.70;42.00;;;;;;6222596;23;20246;-71
2022/04/07 00:13:00;;;;;;;1.10;1.10;;;19.70;41.90;;;;;;6221223;23;20201;-71
2022/04/07 00:15:29;;;;;;;1.20;1.10;;;19.60;41.90;;;;;;6246595;23;20182;-71
2022/04/07 00:17:57;;;;;;;0.93;0.93;;;19.60;41.90;;;;;;6246032;23;20166;-71
2022/04/07 00:20:23;;;;;;;1.05;1.05;;;19.60;41.90;;;;;;6246042;23;20218;-71
2022/04/07 00:22:52;;;;;;;1.10;1.10;;;19.60;42.00;;;;;;6245872;23;20194;-70
2022/04/07 00:25:19;;;;;;;1.00;1.00;;;19.60;42.00;;;;;;6220113;23;20189;-70
2022/04/07 00:27:46;;;;;;;1.10;1.10;;;19.60;42.00;;;;;;6220526;23;20175;-71
2022/04/07 00:30:15;;;;;;;1.20;1.20;;;19.60;42.00;;;;;;6220263;23;20229;-71
2022/04/07 00:32:44;;;;;;;1.15;1.10;;;19.60;42.00;;;;;;6246079;23;20194;-71
2022/04/07 00:35:11;;;;;;;0.98;0.95;;;19.50;42.00;;;;;;6220562;23;20174;-71
2022/04/07 00:37:38;;;;;;;1.08;1.08;;;19.50;42.10;;;;;;6220527;23;20174;-70
2022/04/07 00:40:07;;;;;;;1.52;1.42;;;19.50;42.10;;;;;;6220298;23;20171;-71
2022/04/07 00:42:34;;;;;;;0.90;0.90;;;19.50;42.20;;;;;;6245484;23;20209;-70
2022/04/07 00:45:02;;;;;;;1.00;1.00;;;19.40;42.20;;;;;;6220153;23;20293;-70
2022/04/07 00:47:29;;;;;;;1.65;1.10;;;19.40;42.20;;;;;;6245674;23;20171;-70
2022/04/07 00:49:58;;;;;;;1.10;1.10;;;19.40;42.20;;;;;;6245366;23;20221;-70
2022/04/07 00:52:25;;;;;;;1.40;1.10;;;19.40;42.30;;;;;;6246937;22;20269;-71
2022/04/07 00:54:52;;;;;;;1.08;1.08;;;19.40;42.40;;;;;;6220046;23;20175;-70
2022/04/07 00:57:19;;;;;;;1.13;1.13;;;19.40;42.40;;;;;;6220655;23;20221;-70
2022/04/07 00:59:47;;;;;;;1.10;1.10;;;19.30;42.40;;;;;;6249579;23;20246;-72
2022/04/07 01:02:14;;;;;;;1.02;1.02;;;19.30;42.50;;;;;;6228009;23;20262;-71
2022/04/07 01:04:42;;;;;;;0.82;0.82;;;19.30;42.50;;;;;;6221185;23;20589;-71
2022/04/07 01:07:10;;;;;;;1.30;1.30;;;19.30;42.60;;;;;;6248990;23;20515;-70
2022/04/07 01:09:37;;;;;;;1.00;1.00;;;19.30;42.70;;;;;;6246364;23;20167;-71
2022/04/07 01:12:06;;;;;;;1.10;1.10;;;19.30;42.70;;;;;;6245165;23;20197;-71
2022/04/07 01:14:33;;;;;;;1.30;1.10;;;19.20;42.80;;;;;;6219901;23;20170;-70
2022/04/07 01:17:00;;;;;;;1.10;1.10;;;19.30;42.90;;;;;;6219677;23;20253;-70
2022/04/07 01:19:27;;;;;;;1.10;1.00;;;19.20;42.90;;;;;;6219383;23;20167;-71
2022/04/07 01:21:55;;;;;;;1.15;1.10;;;19.20;42.90;;;;;;6245075;23;20672;-71
2022/04/07 01:24:29;;;;;;;1.10;1.10;;;19.20;42.90;;;;;;6246730;23;20645;-70
2022/04/07 01:26:56;;;;;;;0.98;0.98;;;19.20;43.00;;;;;;6219634;23;20166;-70
2022/04/07 01:29:25;;;;;;;1.17;1.10;;;19.20;43.70;;;;;;6219387;23;20622;-70
2022/04/07 01:31:52;;;;;;;1.10;1.10;;;19.20;43.10;;;;;;6219819;22;20218;-71
2022/04/07 01:34:19;;;;;;;1.17;1.08;;;19.20;43.10;;;;;;6246662;23;20189;-70
2022/04/07 01:36:48;;;;;;;1.20;1.20;;;19.10;43.10;;;;;;6219483;23;20182;-70
2022/04/07 01:39:18;;;;;;;1.15;1.10;;;19.10;43.10;;;;;;6219152;23;20232;-71
2022/04/07 01:41:47;;;;;;;1.08;1.00;;;19.10;43.10;;;;;;6244540;22;20191;-71
2022/04/07 01:44:14;;;;;;;1.08;1.08;;;19.10;43.20;;;;;;6248113;23;20159;-71
2022/04/07 01:46:41;;;;;;;1.20;1.10;;;19.10;43.30;;;;;;6246817;23;20170;-71
2022/04/07 01:49:08;;;;;;;1.00;1.00;;;19.10;43.20;;;;;;6246628;23;20178;-70
2022/04/07 01:51:36;;;;;;;1.13;1.13;;;19.10;43.20;;;;;;6246729;22;20257;-72
2022/04/07 01:54:03;;;;;;;1.30;1.30;;;19.10;43.30;;;;;;6247394;23;20178;-71
2022/04/07 01:56:31;;;;;;;1.17;1.10;;;19.00;43.10;;;;;;6221871;23;20166;-70
2022/04/07 01:58:59;;;;;;;1.10;1.10;;;19.00;43.20;;;;;;6248214;23;20174;-70
2022/04/07 02:01:27;;;;;;;1.20;1.20;;;19.00;43.20;;;;;;6247974;23;20178;-71
2022/04/07 02:03:54;;;;;;;1.20;1.10;;;19.00;43.20;;;;;;6246541;23;20174;-71
2022/04/07 02:06:24;;;;;;;1.10;1.00;;;19.00;43.20;;;;;;6246580;23;20175;-70
2022/04/07 02:08:51;;;;;;;1.05;1.05;;;19.00;43.10;;;;;;6246280;23;20556;-71
2022/04/07 02:11:19;;;;;;;1.15;1.15;;;19.00;43.20;;;;;;6248179;23;20166;-70
2022/04/07 02:13:46;;;;;;;1.00;1.00;;;19.00;43.20;;;;;;6220702;23;20257;-71
2022/04/07 02:16:15;;;;;;;1.10;1.10;;;19.00;43.30;;;;;;6247822;23;20597;-71
2022/04/07 02:18:42;;;;;;;1.27;1.27;;;19.00;43.20;;;;;;6221235;23;20221;-70
2022/04/07 02:21:09;;;;;;;1.15;1.10;;;18.90;43.10;;;;;;6230282;22;20202;-68
2022/04/07 02:23:42;;;;;;;1.02;1.02;;;18.90;43.10;;;;;;6206143;23;20704;-66
2022/04/07 02:26:11;;;;;;;0.93;0.93;;;18.90;43.20;;;;;;6191248;23;20230;-66
2022/04/07 02:28:38;;;;;;;1.17;1.17;;;18.90;43.20;;;;;;6191181;23;20176;-65
2022/04/07 02:31:05;;;;;;;1.00;1.00;;;18.90;43.30;;;;;;6217793;23;20159;-65
2022/04/07 02:33:34;;;;;;;1.17;1.17;;;18.90;43.20;;;;;;6191215;23;20207;-66
2022/04/07 02:36:01;;;;;;;1.00;1.00;;;18.90;43.30;;;;;;6191112;23;20262;-65
2022/04/07 02:38:28;;;;;;;1.10;1.10;;;18.90;43.30;;;;;;6190948;23;20706;-65
2022/04/07 02:40:56;;;;;;;1.08;1.08;;;18.90;43.30;;;;;;6190965;23;20261;-66
2022/04/07 02:43:23;;;;;;;0.93;0.93;;;18.80;43.30;;;;;;6217584;23;20191;-66
2022/04/07 02:45:50;;;;;;;1.10;1.10;;;18.80;43.30;;;;;;6191000;23;20175;-66
2022/04/07 02:48:17;;;;;;;0.90;0.90;;;18.80;43.30;;;;;;6217457;23;20684;-65
2022/04/07 02:50:45;;;;;;;1.00;1.00;;;18.80;43.30;;;;;;6217926;23;20673;-66
2022/04/07 02:53:13;;;;;;;1.10;1.10;;;18.80;43.40;;;;;;6190818;23;20191;-66
2022/04/07 02:55:40;;;;;;;1.10;1.10;;;18.80;43.30;;;;;;6191097;23;20195;-66
2022/04/07 02:58:07;;;;;;;1.00;1.00;;;18.80;43.30;;;;;;6191008;23;20696;-66
2022/04/07 03:00:34;;;;;;;1.00;1.00;;;18.80;43.20;;;;;;6191203;23;20195;-66
2022/04/07 03:03:01;;;;;;;1.00;1.00;;;18.80;43.30;;;;;;6217611;23;20191;-65
2022/04/07 03:05:29;;;;;;;0.90;0.90;;;18.80;43.30;;;;;;6191224;23;20179;-66
2022/04/07 03:07:57;;;;;;;1.10;1.10;;;18.80;43.30;;;;;;6191391;23;20180;-66
2022/04/07 03:10:25;;;;;;;0.98;0.98;;;18.80;43.30;;;;;;6207542;23;20172;-65
2022/04/07 03:12:52;;;;;;;1.02;1.02;;;18.80;43.30;;;;;;6220510;23;20191;-66
2022/04/07 03:15:19;;;;;;;1.00;1.00;;;18.80;43.30;;;;;;6214036;23;20614;-66
2022/04/07 03:17:46;;;;;;;1.38;1.05;;;18.80;43.30;;;;;;6213929;23;20185;-66
2022/04/07 03:20:13;;;;;;;1.00;1.00;;;18.80;43.20;;;;;;6209812;23;20183;-66
2022/04/07 03:22:40;;;;;;;1.10;1.10;;;18.80;43.30;;;;;;6201997;23;20184;-65
2022/04/07 03:25:09;;;;;;;1.10;1.10;;;18.80;43.10;;;;;;6192367;23;20222;-66
2022/04/07 03:27:36;;;;;;;1.10;1.10;;;18.80;43.20;;;;;;6192017;23;20231;-65
2022/04/07 03:30:04;;;;;;;0.93;0.93;;;18.80;43.20;;;;;;6218746;23;20191;-65
2022/04/07 03:32:31;;;;;;;1.00;1.00;;;18.80;43.20;;;;;;6219391;23;20160;-66
2022/04/07 03:34:58;;;;;;;0.95;0.95;;;18.80;43.10;;;;;;6193294;23;20221;-65
2022/04/07 03:37:25;;;;;;;1.02;1.02;;;18.80;43.10;;;;;;6192249;23;20175;-65
2022/04/07 03:39:52;;;;;;;1.08;1.00;;;18.80;43.00;;;;;;6191595;23;20230;-65
2022/04/07 03:42:21;;;;;;;0.88;0.88;;;18.80;42.90;;;;;;6191354;23;20194;-65
2022/04/07 03:44:48;;;;;;;1.08;1.08;;;18.80;42.90;;;;;;6190715;23;20200;-65
2022/04/07 03:47:15;;;;;;;0.93;0.93;;;18.80;42.90;;;;;;6190998;23;20664;-65
2022/04/07 03:49:42;;;;;;;1.20;1.10;;;18.90;42.90;;;;;;6217859;23;20171;-65
2022/04/07 03:52:09;;;;;;;1.95;0.93;;;18.90;42.80;;;;;;6192765;23;20237;-65
2022/04/07 03:54:36;;;;;;;1.00;1.00;;;18.90;42.80;;;;;;6190603;23;20593;-65
2022/04/07 03:57:04;;;;;;;1.70;1.20;;;18.90;42.80;;;;;;6217757;23;20163;-65
2022/04/07 03:59:37;;;;;;;0.93;0.93;;;18.90;42.80;;;;;;6191041;23;20241;-65
2022/04/07 04:02:06;;;;;;;1.00;1.00;;;18.90;42.70;;;;;;6190407;23;20191;-65
2022/04/07 04:04:33;;;;;;;0.90;0.90;;;18.90;42.80;;;;;;6216768;23;20657;-65
2022/04/07 04:07:01;;;;;;;0.80;0.80;;;18.90;42.70;;;;;;6190202;23;20171;-65
2022/04/07 04:09:28;;;;;;;1.00;1.00;;;18.90;42.70;;;;;;6189997;23;20222;-66
2022/04/07 04:11:55;;;;;;;1.10;1.10;;;18.90;42.70;;;;;;6190207;23;20171;-66
2022/04/07 04:14:22;;;;;;;1.10;1.10;;;18.90;42.70;;;;;;6216486;23;20191;-66
2022/04/07 04:16:50;;;;;;;0.95;0.95;;;18.90;42.60;;;;;;6189754;23;20210;-66
2022/04/07 04:19:18;;;;;;;1.00;1.00;;;18.90;42.60;;;;;;6189988;23;20175;-66
2022/04/07 04:21:45;;;;;;;1.05;1.00;;;18.90;42.60;;;;;;6189770;23;20187;-66
2022/04/07 04:24:12;;;;;;;1.10;1.10;;;18.90;42.50;;;;;;6189936;23;20195;-66
2022/04/07 04:26:39;;;;;;;0.90;0.90;;;18.90;42.50;;;;;;6189651;23;20175;-66
2022/04/07 04:29:06;;;;;;;0.90;0.90;;;18.90;42.40;;;;;;6189603;23;20630;-66
2022/04/07 04:31:33;;;;;;;1.00;1.00;;;19.00;42.50;;;;;;6189901;23;20176;-66
2022/04/07 04:34:02;;;;;;;1.00;1.00;;;19.00;42.40;;;;;;6216434;23;20253;-66
2022/04/07 04:36:29;;;;;;;1.00;1.00;;;19.00;42.30;;;;;;6189652;23;20176;-65
2022/04/07 04:38:57;;;;;;;0.80;0.80;;;19.00;42.20;;;;;;6189428;23;20178;-65
2022/04/07 04:41:24;;;;;;;0.95;0.95;;;19.00;42.20;;;;;;6189358;23;20634;-65
2022/04/07 04:43:51;;;;;;;1.00;1.00;;;19.00;42.10;;;;;;6189687;23;20225;-65
2022/04/07 04:46:18;;;;;;;1.02;1.02;;;19.10;42.10;;;;;;6189923;23;20503;-66
2022/04/07 04:48:45;;;;;;;1.08;1.08;;;19.10;42.00;;;;;;6189556;23;20174;-65
2022/04/07 04:51:13;;;;;;;1.00;1.00;;;19.10;41.90;;;;;;6216269;23;20164;-66
2022/04/07 04:53:40;;;;;;;0.90;0.90;;;19.10;41.90;;;;;;6215956;23;20266;-65
2022/04/07 04:56:07;;;;;;;1.00;1.00;;;19.10;41.80;;;;;;6190720;23;20176;-66
2022/04/07 04:58:34;;;;;;;0.90;0.90;;;19.10;41.80;;;;;;6189405;23;20195;-65
2022/04/07 05:01:01;;;;;;;1.00;1.00;;;19.20;41.70;;;;;;6189205;23;20175;-66
2022/04/07 05:03:53;;;;;;;1.23;1.00;;;19.20;41.70;;;;;;6216388;23;20532;-66
2022/04/07 05:06:22;;;;;;;1.00;1.00;;;19.20;41.60;;;;;;6216103;23;20246;-65
2022/04/07 05:08:49;;;;;;;0.90;0.90;;;19.20;41.60;;;;;;6190499;23;20171;-67
2022/04/07 05:11:16;;;;;;;1.00;1.00;;;19.20;41.50;;;;;;6189576;23;20167;-65
2022/04/07 05:13:43;;;;;;;0.88;0.88;;;19.20;41.40;;;;;;6189620;23;20195;-66
2022/04/07 05:16:15;;;;;;;1.25;1.00;;;19.20;41.20;;;;;;6205616;22;20210;-66
2022/04/07 05:18:46;;;;;;;1.48;1.05;;;19.30;41.40;;;;;;6220105;23;20165;-65
2022/04/07 05:21:14;;;;;;;1.25;1.00;;;19.30;41.40;;;;;;6219433;23;20163;-66
2022/04/07 05:23:43;;;;;;;1.30;1.20;;;19.30;41.50;;;;;;6203447;23;20503;-67
2022/04/07 05:26:12;;;;;;;1.00;1.00;;;19.30;41.60;;;;;;6189950;23;20167;-66
2022/04/07 05:28:40;;;;;;;1.33;1.23;;;19.30;41.70;;;;;;6187429;22;20179;-68
2022/04/07 05:31:07;;;;;;;1.00;1.00;;;19.40;41.90;;;;;;6216178;23;20184;-70
2022/04/07 05:33:34;;;;;;;1.00;1.00;;;19.30;42.00;;;;;;6190563;23;20675;-70
2022/04/07 05:36:01;;;;;;;1.10;1.10;;;19.40;42.10;;;;;;6189902;23;20176;-70
2022/04/07 05:38:28;;;;;;;1.00;1.00;;;19.40;41.90;;;;;;6190087;23;20615;-70
2022/04/07 05:40:56;;;;;;;1.20;1.10;;;19.40;42.00;;;;;;6190293;23;20518;-70
2022/04/07 05:43:23;;;;;;;1.02;1.00;;;19.40;42.30;;;;;;6189651;23;20286;-70
2022/04/07 05:45:50;;;;;;;0.98;0.98;;;19.40;42.30;;;;;;6216367;23;20159;-70
2022/04/07 05:48:17;;;;;;;0.90;0.90;;;19.40;42.00;;;;;;6189805;23;20171;-70
2022/04/07 05:50:44;;;;;;;1.00;1.00;;;19.50;41.90;;;;;;6189533;23;20255;-70
2022/04/07 05:53:12;;;;;;;1.23;0.95;;;19.50;42.00;;;;;;6195358;22;20370;-70
2022/04/07 05:55:41;;;;;;;0.90;0.90;;;19.60;41.90;;;;;;6216293;22;20191;-67
2022/04/07 05:58:10;;;;;;;1.00;1.00;;;19.60;42.00;;;;;;6219888;23;20596;-68
2022/04/07 06:00:37;;;;;;;1.42;1.10;;;19.60;42.10;;;;;;6246187;23;20686;-68
2022/04/07 06:03:04;;;;;;;0.93;0.93;;;19.60;41.90;;;;;;6246421;22;20579;-68
2022/04/07 06:05:31;;;;;;;0.90;0.90;;;19.80;41.80;;;;;;6216883;23;20175;-68
2022/04/07 06:07:59;;;;;;;0.80;0.80;;;19.90;41.70;;;;;;6189006;23;20182;-68
2022/04/07 06:10:26;;;;;;;1.08;1.08;;;20.10;41.40;;;;;;6189256;23;20171;-67
2022/04/07 06:12:53;;;;;;;1.10;0.90;;;20.30;40.90;;;;;;6189198;23;20168;-68
2022/04/07 06:15:22;;;;;;;1.40;1.10;;;20.60;40.40;;;;;;6189040;23;20255;-67
2022/04/07 06:17:50;;;;;;;0.90;0.90;;;20.80;40.10;;;;;;6188941;23;20513;-70
2022/04/07 06:20:17;;;;;;;0.95;0.95;;;20.80;39.70;;;;;;6188911;23;20707;-67
2022/04/07 06:22:44;;;;;;;0.90;0.90;;;20.80;39.60;;;;;;6190394;23;20242;-71
2022/04/07 06:25:12;;;;;;;0.90;0.90;;;20.80;39.40;;;;;;6196113;22;20187;-67
2022/04/07 06:27:39;;;;;;;0.88;0.88;;;20.80;39.40;;;;;;6169067;23;20308;-63
2022/04/07 06:30:09;;;;;;;0.95;0.95;;;20.80;39.50;;;;;;6187087;23;20165;-62
2022/04/07 06:32:37;;;;;;;1.10;1.00;;;20.80;39.50;;;;;;6187049;23;20499;-62
2022/04/07 06:35:06;;;;;;;0.90;0.90;;;20.70;39.50;;;;;;6160780;23;20172;-62
2022/04/07 06:37:32;;;;;;;0.90;0.90;;;20.70;39.50;;;;;;6161047;23;20557;-62
2022/04/07 06:40:01;;;;;;;0.95;0.95;;;20.70;39.40;;;;;;6195025;22;20213;-63
2022/04/07 06:42:28;;;;;;;0.90;0.90;;;20.70;39.30;;;;;;6246476;23;20181;-62
2022/04/07 06:47:38;;;;;;;0.82;0.82;;;20.70;39.40;;;;;;6249204;22;20252;-63
2022/04/07 06:50:31;;;;;;;0.90;0.90;;;20.70;39.40;;;;;;6247621;23;20166;-63
2022/04/07 06:52:59;;;;;;;0.90;0.90;;;20.60;39.30;;;;;;6240048;23;20187;-63
2022/04/07 06:55:26;;;;;;;0.95;0.95;;;20.70;39.50;;;;;;6190638;23;20176;-63
2022/04/07 06:57:53;;;;;;;0.93;0.93;;;20.60;39.40;;;;;;6216862;23;20210;-63
2022/04/07 07:00:21;;;;;;;0.80;0.80;;;20.60;39.40;;;;;;6197863;23;20578;-73
2022/04/07 07:02:51;;;;;;;0.80;0.80;;;20.60;39.30;;;;;;6248083;23;20182;-73
2022/04/07 07:05:19;;;;;;;0.88;0.88;;;20.60;39.30;;;;;;6221242;23;20167;-73
2022/04/07 07:07:46;;;;;;;1.00;0.90;;;20.60;39.30;;;;;;6221089;23;20201;-73
2022/04/07 07:12:48;;;;;;;1.23;0.93;;;20.60;39.40;;;;;;6264729;22;20217;-71
2022/04/07 07:15:15;;;;;;;0.90;0.90;;;20.60;39.30;;;;;;6251637;22;20178;-71
2022/04/07 07:17:42;;;;;;;0.82;0.82;;;20.60;39.10;;;;;;6278494;22;20176;-71
2022/04/07 07:20:12;;;;;;;0.90;0.90;;;20.60;39.20;;;;;;6231381;22;20385;-64
2022/04/07 07:22:39;;;;;;;0.93;0.93;;;20.60;39.30;;;;;;6212496;23;20195;-64
2022/04/07 07:25:07;;;;;;;0.80;0.80;;;20.60;39.30;;;;;;6186095;23;20259;-64
2022/04/07 07:27:37;;;;;;;1.00;1.00;;;20.60;39.10;;;;;;6187409;23;20568;-64
2022/04/07 07:30:08;;;;;;;0.90;0.90;;;20.60;39.10;;;;;;6201535;23;20171;-64
2022/04/07 07:32:35;;;;;;;0.90;0.90;;;20.60;39.10;;;;;;6187919;23;20457;-63
2022/04/07 07:35:02;;;;;;;0.80;0.80;;;20.60;39.10;;;;;;6187274;23;20167;-63
2022/04/07 07:37:30;;;;;;;0.90;0.90;;;20.60;39.00;;;;;;6187160;23;20195;-64
2022/04/07 07:39:57;;;;;;;1.20;1.10;;;20.60;39.10;;;;;;6212172;22;20293;-65
2022/04/07 07:42:25;;;;;;;0.80;0.80;;;20.60;39.10;;;;;;6219566;23;20233;-65
2022/04/07 07:44:52;;;;;;;0.90;0.90;;;20.70;39.10;;;;;;6216553;23;20175;-67
2022/04/07 07:47:19;;;;;;;0.82;0.82;;;20.60;39.00;;;;;;6217028;23;20250;-67
2022/04/07 07:49:46;;;;;;;1.33;0.80;;;20.70;39.10;;;;;;6190024;23;20258;-67
2022/04/07 07:52:13;;;;;;;1.00;1.00;;;20.70;39.00;;;;;;6189837;23;20669;-67
2022/04/07 07:54:42;;;;;;;0.82;0.82;;;20.70;39.00;;;;;;6190443;23;20191;-67
2022/04/07 07:57:09;;;;;;;1.00;0.90;;;20.80;38.90;;;;;;6190156;23;20178;-67
2022/04/07 07:59:36;;;;;;;0.90;0.90;;;20.80;38.70;;;;;;6216938;23;20167;-67
2022/04/07 08:02:03;;;;;;;0.80;0.80;;;20.80;38.80;;;;;;6189973;23;20685;-67
2022/04/07 08:04:30;;;;;;;0.82;0.82;;;20.80;38.70;;;;;;6214927;23;20210;-67
2022/04/07 08:06:58;;;;;;;2.30;0.90;;;20.80;38.80;;;;;;6216632;23;20164;-68
2022/04/07 08:09:25;;;;;;;0.90;0.90;;;20.80;38.90;;;;;;6189662;23;20183;-67
2022/04/07 08:11:54;;;;;;;0.82;0.82;;;20.80;38.90;;;;;;6216474;23;20194;-67
2022/04/07 08:14:20;;;;;;;0.80;0.80;;;20.70;38.90;;;;;;6214646;23;20183;-67
2022/04/07 08:16:48;;;;;;;0.85;0.80;;;20.70;38.90;;;;;;6216503;23;20570;-67
2022/04/07 08:19:15;;;;;;;0.90;0.90;;;20.70;38.90;;;;;;6189832;23;20206;-67
2022/04/07 08:21:43;;;;;;;1.00;1.00;;;20.70;38.80;;;;;;6189737;23;20231;-67
2022/04/07 08:24:10;;;;;;;0.80;0.80;;;20.80;38.90;;;;;;6189600;23;20203;-67
2022/04/07 08:26:37;;;;;;;0.90;0.90;;;20.80;38.80;;;;;;6216670;23;20482;-67
2022/04/07 08:29:05;;;;;;;0.73;0.70;;;20.80;38.80;;;;;;6189656;23;20246;-67
2022/04/07 08:31:32;;;;;;;0.90;0.90;;;20.80;38.80;;;;;;6216261;23;20242;-67
2022/04/07 08:33:59;;;;;;;0.90;0.90;;;20.80;38.80;;;;;;6189868;23;20217;-67
2022/04/07 08:36:26;;;;;;;1.00;1.00;;;20.80;38.80;;;;;;6190026;23;20223;-67
2022/04/07 08:38:53;;;;;;;1.42;1.00;;;20.90;38.60;;;;;;6216133;23;20226;-67
2022/04/07 08:41:20;;;;;;;0.90;0.90;;;20.90;38.70;;;;;;6216226;23;20630;-67
2022/04/07 08:43:47;;;;;;;0.80;0.80;;;20.80;38.70;;;;;;6190542;23;20245;-67
2022/04/07 08:46:16;;;;;;;0.95;0.95;;;20.80;38.90;;;;;;6190297;23;20203;-67
2022/04/07 08:48:44;;;;;;;0.90;0.90;;;20.80;38.80;;;;;;6217009;23;20685;-67
2022/04/07 08:51:11;;;;;;;0.77;0.77;;;20.80;38.90;;;;;;6228864;22;20220;-69
2022/04/07 08:53:39;;;;;;;0.88;0.88;;;20.70;38.90;;;;;;6220283;23;20162;-68
2022/04/07 08:58:34;;;;;;;0.80;0.80;;;20.70;39.00;;;;;;6257276;22;20200;-64
2022/04/07 09:01:01;;;;;;;0.80;0.80;;;20.80;39.00;;;;;;6248389;23;20201;-64
2022/04/07 09:03:30;;;;;;;0.90;0.90;;;20.80;38.90;;;;;;6225593;23;20199;-64
2022/04/07 09:05:58;;;;;;;1.13;1.10;;;20.80;38.90;;;;;;6250417;23;20205;-64
2022/04/07 09:08:32;;;;;;;0.90;0.90;;;20.80;38.90;;;;;;6247780;23;20162;-64
2022/04/07 09:11:00;;;;;;;0.80;0.80;;;20.80;38.90;;;;;;6246278;23;20166;-64
2022/04/07 09:13:30;;;;;;;0.90;0.90;;;20.80;38.90;;;;;;6250574;22;20193;-65
2022/04/07 09:15:57;;;;;;;0.90;0.90;;;20.80;38.90;;;;;;6250369;22;20215;-66
2022/04/07 09:20:51;;;;;;;0.88;0.88;;;20.80;39.10;;;;;;6155380;23;20267;-69
2022/04/07 09:23:19;;;;;;;0.82;0.82;;;20.70;39.00;;;;;;6173701;23;20207;-73
2022/04/07 09:25:47;;;;;;;0.85;0.85;;;20.70;38.90;;;;;;6185384;23;20259;-73
2022/04/07 09:28:19;;;;;;;0.90;0.90;;;20.80;39.00;;;;;;6186945;23;20175;-73
2022/04/07 09:33:21;;;;;;;0.80;0.80;;;20.70;38.90;;;;;;6130794;23;20193;-68
2022/04/07 09:36:00;;;;;;;1.42;0.90;;;20.80;39.00;;;;;;6127074;23;20189;-67
2022/04/07 09:38:29;;;;;;;0.82;0.82;;;20.80;39.00;;;;;;6127891;23;20154;-67
2022/04/07 09:41:03;;;;;;;0.80;0.80;;;20.80;38.90;;;;;;6127188;23;20613;-67
2022/04/07 09:43:30;;;;;;;0.80;0.80;;;20.80;38.90;;;;;;6125904;23;20520;-67
2022/04/07 09:45:57;;;;;;;0.80;0.80;;;20.80;38.90;;;;;;6178780;23;20203;-63
2022/04/07 09:48:27;;;;;;;1.00;1.00;;;20.80;38.90;;;;;;6215465;23;20632;-63
2022/04/07 09:51:06;;;;;;;1.05;1.05;;;20.90;38.90;;;;;;6241536;22;20566;-67
2022/04/07 09:53:37;;;;;;;0.70;0.70;;;20.90;38.90;;;;;;6204981;23;20222;-66
2022/04/07 09:56:04;;;;;;;0.90;0.90;;;20.90;38.90;;;;;;6215970;23;20179;-67
2022/04/07 09:58:32;;;;;;;0.80;0.80;;;20.90;39.50;;;;;;6189261;23;20171;-66
2022/04/07 10:01:01;;;;;;;0.80;0.80;;;20.90;38.80;;;;;;6215686;23;20168;-66
2022/04/07 10:03:29;;;;;;;0.77;0.77;;;21.00;38.80;;;;;;6189550;23;20242;-66
2022/04/07 10:05:57;;;;;;;0.90;0.90;;;21.10;39.30;;;;;;6191234;23;20172;-67
2022/04/07 10:08:25;;;;;;;0.80;0.80;;;21.20;39.20;;;;;;6191125;23;20171;-66
2022/04/07 10:10:52;;;;;;;0.70;0.70;;;21.20;38.30;;;;;;6191014;23;20202;-66
2022/04/07 10:13:20;;;;;;;0.75;0.75;;;21.30;38.20;;;;;;6190962;23;20187;-67
2022/04/07 10:15:47;;;;;;;0.75;0.75;;;21.30;38.20;;;;;;6191232;23;20175;-66
2022/04/07 10:18:18;;;;;;;0.73;0.73;;;21.40;38.10;;;;;;6191580;23;20175;-68
2022/04/07 10:20:47;;;;;;;1.23;0.80;;;21.40;38.10;;;;;;6216303;23;20164;-66
2022/04/07 10:23:22;;;;;;;0.95;0.95;;;21.40;38.00;;;;;;6191339;23;20203;-66
2022/04/07 10:25:50;;;;;;;0.93;0.93;;;21.50;37.90;;;;;;6191199;23;20288;-66
2022/04/07 10:28:19;;;;;;;1.00;0.90;;;21.50;37.90;;;;;;6190923;23;20178;-67
2022/04/07 10:30:49;;;;;;;0.80;0.80;;;21.50;37.90;;;;;;6217759;23;20168;-66
2022/04/07 10:33:33;;;;;;;0.90;0.90;;;21.50;37.90;;;;;;6217552;23;20248;-66
2022/04/07 10:36:00;;;;;;;0.70;0.70;;;21.50;37.90;;;;;;6190847;23;20175;-66
2022/04/07 10:38:37;;;;;;;0.75;0.75;;;21.50;37.90;;;;;;6190642;23;20199;-66
2022/04/07 10:41:06;;;;;;;0.85;0.85;;;21.50;37.90;;;;;;6191304;23;20176;-66
2022/04/07 10:43:38;;;;;;;0.80;0.80;;;21.50;37.80;;;;;;6231739;22;20782;-68
2022/04/07 10:46:09;;;;;;;0.80;0.80;;;21.50;37.80;;;;;;6220659;23;20169;-69
2022/04/07 10:48:36;;;;;;;0.65;0.65;;;21.60;37.80;;;;;;6220949;23;20167;-68
2022/04/07 10:51:05;;;;;;;0.77;0.77;;;21.60;37.70;;;;;;6221531;23;20175;-68
2022/04/07 10:53:33;;;;;;;0.70;0.70;;;21.60;37.70;;;;;;6195911;23;20195;-68
2022/04/07 10:56:06;;;;;;;0.80;0.80;;;21.60;37.60;;;;;;6190670;23;20206;-67
2022/04/07 10:58:46;;;;;;;0.70;0.70;;;21.70;37.60;;;;;;6217215;23;20152;-68
2022/04/07 11:01:15;;;;;;;0.88;0.88;;;21.80;37.50;;;;;;6190482;23;20671;-68
2022/04/07 11:03:42;;;;;;;1.20;0.88;;;21.80;38.10;;;;;;6190346;23;20200;-68
2022/04/07 11:06:11;;;;;;;0.70;0.70;;;21.90;37.30;;;;;;6190477;23;20172;-68
2022/04/07 11:08:38;;;;;;;0.73;0.73;;;22.00;37.30;;;;;;6190236;23;20514;-67
2022/04/07 11:11:07;;;;;;;0.90;0.90;;;21.90;37.70;;;;;;6217088;23;20568;-68
2022/04/07 11:13:44;;;;;;;0.80;0.80;;;22.00;37.10;;;;;;6190373;23;20622;-68
2022/04/07 11:16:36;;;;;;;0.70;0.70;;;22.00;37.70;;;;;;6217220;23;20241;-68
2022/04/07 11:19:16;;;;;;;0.70;0.70;;;22.10;37.10;;;;;;6216783;23;20496;-68
2022/04/07 11:21:50;;;;;;;0.80;0.80;;;22.10;37.10;;;;;;6216802;23;20171;-68
2022/04/07 11:24:23;;;;;;;0.77;0.77;;;22.10;37.00;;;;;;6190306;23;20191;-68
2022/04/07 11:26:52;;;;;;;0.80;0.80;;;22.10;37.00;;;;;;6190278;23;20513;-69
2022/04/07 11:29:31;;;;;;;0.80;0.80;;;22.10;37.00;;;;;;6191196;23;20269;-70
2022/04/07 11:32:06;;;;;;;0.98;0.98;;;22.10;37.60;;;;;;6190036;23;20202;-68
2022/04/07 11:34:53;;;;;;;0.70;0.70;;;22.10;36.90;;;;;;6216907;23;20151;-68
2022/04/07 11:37:20;;;;;;;0.80;0.80;;;22.10;36.90;;;;;;6190296;23;20164;-67
2022/04/07 11:39:49;;;;;;;0.73;0.73;;;22.10;36.90;;;;;;6190183;23;20175;-68
2022/04/07 11:42:18;;;;;;;0.70;0.70;;;22.20;37.00;;;;;;6189889;23;20196;-68
2022/04/07 11:44:46;;;;;;;0.80;0.80;;;22.20;36.90;;;;;;6189996;23;20640;-68
2022/04/07 11:47:23;;;;;;;0.90;0.90;;;22.20;36.90;;;;;;6216903;23;20504;-68
2022/04/07 11:49:50;;;;;;;0.88;0.88;;;22.20;37.50;;;;;;6216576;23;20551;-68
2022/04/07 11:52:17;;;;;;;0.80;0.80;;;22.20;36.80;;;;;;6190368;23;20191;-68
2022/04/07 11:54:44;;;;;;;0.90;0.90;;;22.20;36.80;;;;;;6190255;23;20171;-68
2022/04/07 11:57:12;;;;;;;0.82;0.82;;;22.30;36.90;;;;;;6190158;23;20179;-68
2022/04/07 11:59:42;;;;;;;0.80;0.80;;;22.30;36.80;;;;;;6189826;23;20544;-68
2022/04/07 12:02:09;;;;;;;0.70;0.70;;;22.30;36.70;;;;;;6189756;23;20198;-68
2022/04/07 12:04:36;;;;;;;0.85;0.85;;;22.30;36.80;;;;;;6216073;23;20218;-68
2022/04/07 12:07:04;;;;;;;0.80;0.80;;;22.30;36.70;;;;;;6216242;23;20502;-68
2022/04/07 12:09:31;;;;;;;0.70;0.70;;;22.30;36.70;;;;;;6216544;23;20219;-68
2022/04/07 12:11:58;;;;;;;0.70;0.70;;;22.30;37.50;;;;;;6189669;23;20278;-68
2022/04/07 12:14:25;;;;;;;0.80;0.80;;;22.30;36.80;;;;;;6189491;23;20199;-68
2022/04/07 12:16:54;;;;;;;0.65;0.65;;;22.30;36.80;;;;;;6189530;23;20171;-68
2022/04/07 12:19:21;;;;;;;0.80;0.80;;;22.20;36.80;;;;;;6189505;23;20202;-68
2022/04/07 12:21:56;;;;;;;0.65;0.65;;;22.20;36.80;;;;;;6189633;23;20623;-68
2022/04/07 12:24:24;;;;;;;0.85;0.85;;;22.20;36.90;;;;;;6189813;23;20193;-68
2022/04/07 12:26:52;;;;;;;0.70;0.70;;;22.20;36.90;;;;;;6189442;23;20176;-68
2022/04/07 12:29:20;;;;;;;0.60;0.60;;;22.20;36.90;;;;;;6189924;23;20539;-68
2022/04/07 12:31:59;;;;;;;0.80;0.80;;;22.20;36.90;;;;;;6189344;23;20254;-68
2022/04/07 12:34:27;;;;;;;0.80;0.80;;;22.20;36.90;;;;;;6216390;23;20630;-68
2022/04/07 12:36:55;;;;;;;0.77;0.77;;;22.20;36.90;;;;;;6189292;23;20174;-68
2022/04/07 12:39:22;;;;;;;0.70;0.70;;;22.30;37.00;;;;;;6215992;23;20163;-68
2022/04/07 12:41:51;;;;;;;0.68;0.68;;;22.20;36.90;;;;;;6189193;23;20245;-68
2022/04/07 12:44:19;;;;;;;0.80;0.80;;;22.20;37.00;;;;;;6189242;23;20214;-70
2022/04/07 12:46:49;;;;;;;0.63;0.63;;;22.20;36.90;;;;;;6215891;23;20164;-68
2022/04/07 12:49:25;;;;;;;0.77;0.77;;;22.20;37.00;;;;;;6189279;23;20610;-68
2022/04/07 12:52:03;;;;;;;0.85;0.75;;;22.20;37.10;;;;;;6215942;23;20190;-68
2022/04/07 12:54:30;;;;;;;0.68;0.68;;;22.20;37.70;;;;;;6216080;23;20499;-68
2022/04/07 12:57:11;;;;;;;0.80;0.80;;;22.20;37.00;;;;;;6189161;23;20531;-68
2022/04/07 12:59:39;;;;;;;0.55;0.52;;;22.20;37.10;;;;;;6189374;23;20634;-68
2022/04/07 13:02:06;;;;;;;0.73;0.73;;;22.20;37.00;;;;;;6189500;23;20191;-68
2022/04/07 13:04:47;;;;;;;0.80;0.80;;;22.20;37.10;;;;;;6216071;23;20179;-68
2022/04/07 13:07:14;;;;;;;0.75;0.75;;;22.20;37.10;;;;;;6189249;23;20171;-67